Lancaster, NH (03584)

1:29 AM EST on February 14, 2016 (GMT -0500)
Kilkenny View Rd | | Change Station
CLOSE
Current Station
Personal Weather Station
Location: Jefferson, NH
Elevation: 1093 ft
Nearby Weather Stations

Elev 1093 ft 44.44 °N, 71.51 °W | Updated 4 minutes ago

Overcast
Overcast
-16.1 °F
Feels Like -16 °F
N
0.0
Wind Variable Wind from WNW
Gusts 5.0 mph

Today
High -- | Low -- °F
--% Chance of Precip.
Yesterday
High -- | Low -- °F
Precip. -- in
Pressure 30.23 in
Visibility 2.5 miles
Clouds Overcast 2600 ft
Windchill -16 °F
Dew Point -24 °F
Humidity 65%
Rainfall 0.00 in
Snow Depth Not available.
6:48 AM 5:13 PM
Waxing Crescent, 38% visible
METAR KHIE 140552Z AUTO 27004KT 2 1/2SM HZ OVC026 M26/M31 A3013 RMK AO2 SLP236 T12611306 11244 21261 53002
Pressure 30.23 in
Visibility 2.5 miles
Clouds Overcast 2600 ft
Windchill -16 °F
Dew Point -24 °F
Humidity 65%
Rainfall 0.00 in
Snow Depth Not available.
6:48 AM 5:13 PM
Waxing Crescent, 38% visible
METAR KHIE 140552Z AUTO 27004KT 2 1/2SM HZ OVC026 M26/M31 A3013 RMK AO2 SLP236 T12611306 11244 21261 53002

10-Day Weather Forecast

Almanac

Astronomy

Feb. 14, 2016 Rise Set
Actual Time
Civil Twilight
Nautical Twilight
Astronomical Twilight
Moon
Length of Visible Light
Length of Day
Tomorrow will be .
, % of the Moon is Illuminated

Today's Extremes

State Highs State Lows

Community

WunderPhotos

Upload Photos

1,892,753 photos uploaded!

WunderBlog® & News

Nearby

Air Quality

  Air Quality AQ Index Pollutant
Not available.

Snow Depth

Station Depth Elevation

Earthquake Activity

City Distance Mag. Time & Date
Minimum magnitude displayed is 2.5.

Coastal Water Temperatures

Place Temperature

Stations

Nearby Weather Stations

Station Location Temp. Windchill Dew Point Humidity Wind Precip. Elev Updated Type
                   

Watches & Warnings

Wind Chill Warning
Issued: 9:10 PM EST Feb. 13, 2016 – National Weather Service

... Wind chill warning remains in effect until 10 am EST Sunday...

* hazard types... dangerous wind chill readings.

* Wind chill... as low as 48 below due to temperatures 13 below
to 22 below zero... and winds northwest 10 to 20 mph with gusts
up to 30 mph.

* Timing... tonight and Sunday morning.

* Impacts... frostbite and hypothermia if unprotected from the
cold.

* Winds... northwest 10 to 20 mph with gusts up to 30 mph.

* Temperatures... 13 below to 22 below zero.

Precautionary/preparedness actions...

A wind chill warning means the combination of very cold air and
strong winds will create dangerously low wind chill values. This
will result in frost bite and lead to hypothermia or death if
precautions are not taken.